sensor_id;sensor_type;location;lat;lon;timestamp;pressure;altitude;pressure_sealevel;temperature;humidity
81033;BME280;70514;52.478;6.102;2023-08-21T00:00:06;102431.13;;;18.40;83.75
81033;BME280;70514;52.478;6.102;2023-08-21T00:02:36;102432.88;;;18.38;83.77
81033;BME280;70514;52.478;6.102;2023-08-21T00:05:06;102437.22;;;18.33;83.06
81033;BME280;70514;52.478;6.102;2023-08-21T00:07:36;102429.41;;;18.39;83.03
81033;BME280;70514;52.478;6.102;2023-08-21T00:10:05;102438.06;;;18.35;82.54
81033;BME280;70514;52.478;6.102;2023-08-21T00:12:35;102437.13;;;18.08;82.49
81033;BME280;70514;52.478;6.102;2023-08-21T00:15:05;102438.88;;;18.09;84.13
81033;BME280;70514;52.478;6.102;2023-08-21T00:17:34;102436.28;;;18.14;83.65
81033;BME280;70514;52.478;6.102;2023-08-21T00:20:04;102441.53;;;18.21;84.16
81033;BME280;70514;52.478;6.102;2023-08-21T00:22:34;102435.41;;;18.15;83.37
81033;BME280;70514;52.478;6.102;2023-08-21T00:25:03;102442.25;;;17.79;82.30
81033;BME280;70514;52.478;6.102;2023-08-21T00:27:33;102440.22;;;17.31;84.25
81033;BME280;70514;52.478;6.102;2023-08-21T00:30:02;102441.91;;;17.22;85.68
81033;BME280;70514;52.478;6.102;2023-08-21T00:32:31;102441.78;;;17.04;85.40
81033;BME280;70514;52.478;6.102;2023-08-21T00:35:01;102439.84;;;16.78;86.40
81033;BME280;70514;52.478;6.102;2023-08-21T00:37:30;102433.75;;;16.79;86.23
81033;BME280;70514;52.478;6.102;2023-08-21T00:39:59;102444.13;;;16.72;86.37
81033;BME280;70514;52.478;6.102;2023-08-21T00:42:28;102441.84;;;17.10;87.81
81033;BME280;70514;52.478;6.102;2023-08-21T00:44:57;102443.81;;;17.49;87.97
81033;BME280;70514;52.478;6.102;2023-08-21T00:47:26;102431.78;;;17.66;86.44
81033;BME280;70514;52.478;6.102;2023-08-21T00:49:56;102425.59;;;17.50;85.53
81033;BME280;70514;52.478;6.102;2023-08-21T00:52:25;102429.97;;;17.59;86.26
81033;BME280;70514;52.478;6.102;2023-08-21T00:54:55;102417.97;;;17.94;87.02
81033;BME280;70514;52.478;6.102;2023-08-21T00:57:25;102425.81;;;17.99;85.65
81033;BME280;70514;52.478;6.102;2023-08-21T00:59:55;102421.50;;;18.02;85.04
81033;BME280;70514;52.478;6.102;2023-08-21T01:02:24;102428.41;;;17.93;84.87
81033;BME280;70514;52.478;6.102;2023-08-21T01:04:53;102423.19;;;17.96;85.80
81033;BME280;70514;52.478;6.102;2023-08-21T01:07:23;102426.66;;;17.87;84.37
81033;BME280;70514;52.478;6.102;2023-08-21T01:10:10;102425.88;;;18.12;85.79
81033;BME280;70514;52.478;6.102;2023-08-21T01:12:51;102425.09;;;18.83;82.17
81033;BME280;70514;52.478;6.102;2023-08-21T01:15:22;102420.66;;;18.17;82.79
81033;BME280;70514;52.478;6.102;2023-08-21T01:17:53;102433.63;;;18.03;83.37
81033;BME280;70514;52.478;6.102;2023-08-21T01:20:23;102435.34;;;17.89;84.42
81033;BME280;70514;52.478;6.102;2023-08-21T01:22:52;102441.41;;;17.90;83.96
81033;BME280;70514;52.478;6.102;2023-08-21T01:25:21;102431.00;;;17.87;85.04
81033;BME280;70514;52.478;6.102;2023-08-21T01:27:51;102442.28;;;17.89;84.20
81033;BME280;70514;52.478;6.102;2023-08-21T01:30:20;102447.44;;;17.75;83.83
81033;BME280;70514;52.478;6.102;2023-08-21T01:32:59;102443.06;;;17.68;84.85
81033;BME280;70514;52.478;6.102;2023-08-21T01:35:35;102445.75;;;17.86;85.25
81033;BME280;70514;52.478;6.102;2023-08-21T01:38:05;102447.50;;;17.90;84.17
81033;BME280;70514;52.478;6.102;2023-08-21T01:40:34;102448.38;;;17.94;84.01
81033;BME280;70514;52.478;6.102;2023-08-21T01:43:04;102451.88;;;17.93;84.15
81033;BME280;70514;52.478;6.102;2023-08-21T01:45:33;102453.53;;;17.75;84.69
81033;BME280;70514;52.478;6.102;2023-08-21T01:48:02;102456.94;;;17.67;84.53
81033;BME280;70514;52.478;6.102;2023-08-21T01:50:32;102459.53;;;17.61;85.68
81033;BME280;70514;52.478;6.102;2023-08-21T01:53:01;102463.13;;;17.84;85.65
81033;BME280;70514;52.478;6.102;2023-08-21T01:55:30;102450.94;;;17.88;85.05
81033;BME280;70514;52.478;6.102;2023-08-21T01:57:59;102450.03;;;17.73;85.06
81033;BME280;70514;52.478;6.102;2023-08-21T02:00:28;102451.72;;;17.59;84.03
81033;BME280;70514;52.478;6.102;2023-08-21T02:02:57;102449.00;;;17.52;84.41
81033;BME280;70514;52.478;6.102;2023-08-21T02:05:27;102448.81;;;17.21;83.34
81033;BME280;70514;52.478;6.102;2023-08-21T02:07:56;102453.16;;;17.18;86.01
81033;BME280;70514;52.478;6.102;2023-08-21T02:10:25;102454.13;;;17.30;85.21
81033;BME280;70514;52.478;6.102;2023-08-21T02:12:54;102442.00;;;17.35;85.12
81033;BME280;70514;52.478;6.102;2023-08-21T02:15:23;102444.53;;;17.26;84.92
81033;BME280;70514;52.478;6.102;2023-08-21T02:17:53;102445.53;;;17.45;86.83
81033;BME280;70514;52.478;6.102;2023-08-21T02:20:22;102445.84;;;18.15;83.14
81033;BME280;70514;52.478;6.102;2023-08-21T02:22:51;102444.84;;;17.72;83.76
81033;BME280;70514;52.478;6.102;2023-08-21T02:25:20;102450.09;;;17.86;84.64
81033;BME280;70514;52.478;6.102;2023-08-21T02:27:49;102457.84;;;17.70;83.95
81033;BME280;70514;52.478;6.102;2023-08-21T02:30:18;102452.66;;;17.72;84.69
81033;BME280;70514;52.478;6.102;2023-08-21T02:32:49;102438.97;;;18.34;83.00
81033;BME280;70514;52.478;6.102;2023-08-21T02:35:18;102450.16;;;17.98;82.41
81033;BME280;70514;52.478;6.102;2023-08-21T02:37:47;102452.75;;;18.01;82.56
81033;BME280;70514;52.478;6.102;2023-08-21T02:40:20;102455.34;;;17.99;82.81
81033;BME280;70514;52.478;6.102;2023-08-21T02:42:49;102449.06;;;17.58;83.93
81033;BME280;70514;52.478;6.102;2023-08-21T02:45:18;102450.69;;;17.37;83.69
81033;BME280;70514;52.478;6.102;2023-08-21T02:47:47;102455.75;;;17.21;83.73
81033;BME280;70514;52.478;6.102;2023-08-21T02:50:17;102460.97;;;17.19;85.27
81033;BME280;70514;52.478;6.102;2023-08-21T02:52:46;102462.94;;;17.58;84.88
81033;BME280;70514;52.478;6.102;2023-08-21T02:55:15;102458.53;;;17.47;84.92
81033;BME280;70514;52.478;6.102;2023-08-21T02:57:44;102457.66;;;17.46;84.34
81033;BME280;70514;52.478;6.102;2023-08-21T03:00:13;102455.84;;;17.33;84.13
81033;BME280;70514;52.478;6.102;2023-08-21T03:02:43;102455.94;;;17.47;83.69
81033;BME280;70514;52.478;6.102;2023-08-21T03:05:13;102452.59;;;17.61;84.04
81033;BME280;70514;52.478;6.102;2023-08-21T03:07:43;102454.38;;;17.73;83.99
81033;BME280;70514;52.478;6.102;2023-08-21T03:10:12;102463.06;;;17.70;84.08
81033;BME280;70514;52.478;6.102;2023-08-21T03:12:41;102449.13;;;17.68;84.19
81033;BME280;70514;52.478;6.102;2023-08-21T03:15:10;102449.91;;;17.51;84.55
81033;BME280;70514;52.478;6.102;2023-08-21T03:17:40;102446.34;;;17.41;84.03
81033;BME280;70514;52.478;6.102;2023-08-21T03:20:10;102450.75;;;17.50;85.17
81033;BME280;70514;52.478;6.102;2023-08-21T03:22:40;102450.91;;;17.74;85.11
81033;BME280;70514;52.478;6.102;2023-08-21T03:25:09;102457.06;;;17.94;82.19
81033;BME280;70514;52.478;6.102;2023-08-21T03:27:39;102453.53;;;17.83;82.90
81033;BME280;70514;52.478;6.102;2023-08-21T03:30:08;102449.13;;;17.64;83.91
81033;BME280;70514;52.478;6.102;2023-08-21T03:32:38;102448.19;;;17.54;84.07
81033;BME280;70514;52.478;6.102;2023-08-21T03:35:08;102442.91;;;17.47;83.77
81033;BME280;70514;52.478;6.102;2023-08-21T03:37:37;102450.66;;;17.34;84.00
81033;BME280;70514;52.478;6.102;2023-08-21T03:40:07;102435.66;;;16.98;85.62
81033;BME280;70514;52.478;6.102;2023-08-21T03:42:37;102441.81;;;17.11;85.06
81033;BME280;70514;52.478;6.102;2023-08-21T03:45:07;102434.06;;;17.19;86.04
81033;BME280;70514;52.478;6.102;2023-08-21T03:47:37;102441.09;;;17.29;85.31
81033;BME280;70514;52.478;6.102;2023-08-21T03:50:06;102444.59;;;17.34;85.51
81033;BME280;70514;52.478;6.102;2023-08-21T03:52:36;102442.06;;;17.48;84.58
81033;BME280;70514;52.478;6.102;2023-08-21T03:55:06;102441.19;;;17.47;84.68
81033;BME280;70514;52.478;6.102;2023-08-21T03:57:35;102436.78;;;17.35;83.96
81033;BME280;70514;52.478;6.102;2023-08-21T04:00:05;102439.34;;;17.28;84.74
81033;BME280;70514;52.478;6.102;2023-08-21T04:02:37;102427.16;;;17.22;85.18
81033;BME280;70514;52.478;6.102;2023-08-21T04:05:07;102437.59;;;17.27;84.60
81033;BME280;70514;52.478;6.102;2023-08-21T04:07:37;102435.84;;;17.27;84.72
81033;BME280;70514;52.478;6.102;2023-08-21T04:10:06;102437.59;;;17.24;84.77
81033;BME280;70514;52.478;6.102;2023-08-21T04:12:35;102432.34;;;17.22;85.31
81033;BME280;70514;52.478;6.102;2023-08-21T04:15:05;102439.34;;;17.25;85.33
81033;BME280;70514;52.478;6.102;2023-08-21T04:17:35;102434.97;;;17.25;84.91
81033;BME280;70514;52.478;6.102;2023-08-21T04:20:04;102435.81;;;17.18;84.90
81033;BME280;70514;52.478;6.102;2023-08-21T04:22:34;102443.75;;;17.39;84.55
81033;BME280;70514;52.478;6.102;2023-08-21T04:25:03;102447.28;;;17.52;83.29
81033;BME280;70514;52.478;6.102;2023-08-21T04:27:32;102449.00;;;17.49;83.81
81033;BME280;70514;52.478;6.102;2023-08-21T04:30:02;102448.97;;;17.42;84.15
81033;BME280;70514;52.478;6.102;2023-08-21T04:32:31;102451.53;;;17.36;84.47
81033;BME280;70514;52.478;6.102;2023-08-21T04:35:01;102448.03;;;17.28;84.20
81033;BME280;70514;52.478;6.102;2023-08-21T04:37:31;102456.59;;;17.17;84.05
81033;BME280;70514;52.478;6.102;2023-08-21T04:40:00;102453.06;;;17.07;85.21
81033;BME280;70514;52.478;6.102;2023-08-21T04:42:29;102454.13;;;17.30;85.26
81033;BME280;70514;52.478;6.102;2023-08-21T04:44:59;102459.66;;;17.85;82.58
81033;BME280;70514;52.478;6.102;2023-08-21T04:47:28;102450.13;;;17.87;82.37
81033;BME280;70514;52.478;6.102;2023-08-21T04:49:57;102447.56;;;18.14;81.54
81033;BME280;70514;52.478;6.102;2023-08-21T04:52:27;102450.00;;;17.69;82.55
81033;BME280;70514;52.478;6.102;2023-08-21T04:54:56;102450.94;;;17.80;82.38
81033;BME280;70514;52.478;6.102;2023-08-21T04:57:25;102447.22;;;17.41;83.24
81033;BME280;70514;52.478;6.102;2023-08-21T04:59:54;102452.41;;;17.34;84.08
81033;BME280;70514;52.478;6.102;2023-08-21T05:02:23;102461.13;;;17.47;84.51
81033;BME280;70514;52.478;6.102;2023-08-21T05:04:52;102455.06;;;17.45;83.65
81033;BME280;70514;52.478;6.102;2023-08-21T05:07:22;102455.03;;;17.40;84.48
81033;BME280;70514;52.478;6.102;2023-08-21T05:09:51;102459.53;;;17.61;83.95
81033;BME280;70514;52.478;6.102;2023-08-21T05:12:20;102451.88;;;17.99;82.34
81033;BME280;70514;52.478;6.102;2023-08-21T05:14:49;102459.69;;;17.99;82.35
81033;BME280;70514;52.478;6.102;2023-08-21T05:17:18;102458.03;;;18.20;81.42
81033;BME280;70514;52.478;6.102;2023-08-21T05:19:47;102460.59;;;18.05;81.74
81033;BME280;70514;52.478;6.102;2023-08-21T05:22:16;102458.00;;;18.19;81.22
81033;BME280;70514;52.478;6.102;2023-08-21T05:24:45;102465.88;;;18.22;82.17
81033;BME280;70514;52.478;6.102;2023-08-21T05:27:16;102459.81;;;18.37;82.04
81033;BME280;70514;52.478;6.102;2023-08-21T05:29:45;102464.22;;;19.30;77.62
81033;BME280;70514;52.478;6.102;2023-08-21T05:32:15;102474.69;;;19.32;77.31
81033;BME280;70514;52.478;6.102;2023-08-21T05:34:44;102473.81;;;19.08;77.43
81033;BME280;70514;52.478;6.102;2023-08-21T05:37:13;102479.03;;;18.81;78.37
81033;BME280;70514;52.478;6.102;2023-08-21T05:39:42;102476.44;;;18.99;78.31
81033;BME280;70514;52.478;6.102;2023-08-21T05:42:11;102473.81;;;19.08;77.78
81033;BME280;70514;52.478;6.102;2023-08-21T05:44:40;102472.94;;;19.32;78.35
81033;BME280;70514;52.478;6.102;2023-08-21T05:47:09;102472.91;;;19.57;76.52
81033;BME280;70514;52.478;6.102;2023-08-21T05:49:39;102477.97;;;20.02;73.92
81033;BME280;70514;52.478;6.102;2023-08-21T05:52:09;102475.41;;;19.91;76.28
81033;BME280;70514;52.478;6.102;2023-08-21T05:54:38;102478.16;;;19.03;78.71
81033;BME280;70514;52.478;6.102;2023-08-21T05:57:07;102492.09;;;18.89;80.00
81033;BME280;70514;52.478;6.102;2023-08-21T05:59:46;102484.25;;;19.21;78.61
81033;BME280;70514;52.478;6.102;2023-08-21T06:02:15;102479.69;;;20.08;73.75
81033;BME280;70514;52.478;6.102;2023-08-21T06:04:45;102486.81;;;19.72;75.67
81033;BME280;70514;52.478;6.102;2023-08-21T06:07:14;102483.13;;;20.16;73.18
81033;BME280;70514;52.478;6.102;2023-08-21T06:09:44;102488.88;;;20.78;70.03
81033;BME280;70514;52.478;6.102;2023-08-21T06:12:13;102482.88;;;20.63;70.93
81033;BME280;70514;52.478;6.102;2023-08-21T06:14:42;102487.47;;;20.24;74.16
81033;BME280;70514;52.478;6.102;2023-08-21T06:17:11;102487.78;;;21.08;69.55
81033;BME280;70514;52.478;6.102;2023-08-21T06:19:40;102486.59;;;21.43;67.50
81033;BME280;70514;52.478;6.102;2023-08-21T06:22:10;102485.09;;;21.16;71.01
81033;BME280;70514;52.478;6.102;2023-08-21T06:24:39;102487.31;;;20.56;73.55
81033;BME280;70514;52.478;6.102;2023-08-21T06:27:08;102484.66;;;20.59;72.36
81033;BME280;70514;52.478;6.102;2023-08-21T06:29:37;102483.97;;;21.43;67.45
81033;BME280;70514;52.478;6.102;2023-08-21T06:32:09;102486.59;;;21.44;68.27
81033;BME280;70514;52.478;6.102;2023-08-21T06:34:38;102486.44;;;20.54;72.32
81033;BME280;70514;52.478;6.102;2023-08-21T06:37:07;102483.91;;;20.39;72.96
81033;BME280;70514;52.478;6.102;2023-08-21T06:39:36;102490.91;;;20.28;73.84
81033;BME280;70514;52.478;6.102;2023-08-21T06:42:06;102484.41;;;20.93;70.17
81033;BME280;70514;52.478;6.102;2023-08-21T06:44:35;102488.94;;;21.67;66.29
81033;BME280;70514;52.478;6.102;2023-08-21T06:47:04;102482.19;;;22.21;64.59
81033;BME280;70514;52.478;6.102;2023-08-21T06:49:33;102491.19;;;22.00;66.42
81033;BME280;70514;52.478;6.102;2023-08-21T06:52:02;102490.94;;;21.44;68.68
81033;BME280;70514;52.478;6.102;2023-08-21T06:54:32;102496.69;;;21.78;68.91
81033;BME280;70514;52.478;6.102;2023-08-21T06:57:01;102484.94;;;22.73;62.20
81033;BME280;70514;52.478;6.102;2023-08-21T06:59:32;102485.16;;;22.57;62.98
81033;BME280;70514;52.478;6.102;2023-08-21T07:02:05;102496.69;;;23.03;60.91
81033;BME280;70514;52.478;6.102;2023-08-21T07:04:35;102490.50;;;23.07;60.01
81033;BME280;70514;52.478;6.102;2023-08-21T07:07:04;102489.63;;;22.52;61.76
81033;BME280;70514;52.478;6.102;2023-08-21T07:09:33;102481.47;;;22.71;60.99
81033;BME280;70514;52.478;6.102;2023-08-21T07:12:03;102487.59;;;23.24;60.27
81033;BME280;70514;52.478;6.102;2023-08-21T07:14:32;102485.09;;;22.61;63.13
81033;BME280;70514;52.478;6.102;2023-08-21T07:17:01;102491.88;;;22.79;62.82
81033;BME280;70514;52.478;6.102;2023-08-21T07:19:33;102496.78;;;22.99;61.00
81033;BME280;70514;52.478;6.102;2023-08-21T07:22:02;102494.69;;;23.19;61.03
81033;BME280;70514;52.478;6.102;2023-08-21T07:24:31;102494.38;;;23.36;60.88
81033;BME280;70514;52.478;6.102;2023-08-21T07:27:00;102489.56;;;23.59;59.84
81033;BME280;70514;52.478;6.102;2023-08-21T07:29:30;102481.91;;;23.91;56.93
81033;BME280;70514;52.478;6.102;2023-08-21T07:31:59;102484.38;;;24.40;55.80
81033;BME280;70514;52.478;6.102;2023-08-21T07:34:29;102484.94;;;24.54;55.49
81033;BME280;70514;52.478;6.102;2023-08-21T07:36:59;102486.72;;;24.52;56.95
81033;BME280;70514;52.478;6.102;2023-08-21T07:39:28;102484.53;;;24.71;54.34
81033;BME280;70514;52.478;6.102;2023-08-21T07:41:57;102482.44;;;24.84;53.82
81033;BME280;70514;52.478;6.102;2023-08-21T07:44:27;102486.09;;;25.14;52.72
81033;BME280;70514;52.478;6.102;2023-08-21T07:46:56;102485.69;;;24.96;54.64
81033;BME280;70514;52.478;6.102;2023-08-21T07:49:25;102473.66;;;24.83;54.29
81033;BME280;70514;52.478;6.102;2023-08-21T07:51:54;102481.75;;;25.13;53.06
81033;BME280;70514;52.478;6.102;2023-08-21T07:54:24;102487.91;;;25.44;52.11
81033;BME280;70514;52.478;6.102;2023-08-21T07:56:53;102495.34;;;25.64;51.53
81033;BME280;70514;52.478;6.102;2023-08-21T07:59:22;102499.03;;;25.88;52.41
81033;BME280;70514;52.478;6.102;2023-08-21T08:01:51;102489.31;;;25.90;52.04
81033;BME280;70514;52.478;6.102;2023-08-21T08:04:21;102505.22;;;25.87;53.42
81033;BME280;70514;52.478;6.102;2023-08-21T08:06:50;102493.75;;;26.17;51.29
81033;BME280;70514;52.478;6.102;2023-08-21T08:09:20;102506.34;;;26.09;50.06
81033;BME280;70514;52.478;6.102;2023-08-21T08:11:50;102497.44;;;25.82;50.10
81033;BME280;70514;52.478;6.102;2023-08-21T08:14:19;102500.50;;;25.67;51.24
81033;BME280;70514;52.478;6.102;2023-08-21T08:16:48;102505.97;;;25.61;51.32
81033;BME280;70514;52.478;6.102;2023-08-21T08:19:17;102507.66;;;25.63;50.87
81033;BME280;70514;52.478;6.102;2023-08-21T08:21:46;102498.66;;;25.70;51.14
81033;BME280;70514;52.478;6.102;2023-08-21T08:24:16;102500.53;;;25.96;50.62
81033;BME280;70514;52.478;6.102;2023-08-21T08:26:45;102501.81;;;26.12;49.56
81033;BME280;70514;52.478;6.102;2023-08-21T08:29:14;102503.66;;;26.10;49.75
81033;BME280;70514;52.478;6.102;2023-08-21T08:31:44;102507.34;;;26.05;50.00
81033;BME280;70514;52.478;6.102;2023-08-21T08:34:15;102505.16;;;26.19;49.87
81033;BME280;70514;52.478;6.102;2023-08-21T08:36:47;102502.69;;;26.13;49.94
81033;BME280;70514;52.478;6.102;2023-08-21T08:39:16;102503.31;;;26.22;49.88
81033;BME280;70514;52.478;6.102;2023-08-21T08:41:58;102501.84;;;26.42;49.12
81033;BME280;70514;52.478;6.102;2023-08-21T08:44:30;102506.66;;;26.83;48.43
81033;BME280;70514;52.478;6.102;2023-08-21T08:47:00;102498.59;;;27.14;47.30
81033;BME280;70514;52.478;6.102;2023-08-21T08:49:30;102503.69;;;27.20;47.01
81033;BME280;70514;52.478;6.102;2023-08-21T08:52:00;102504.81;;;27.13;47.55
81033;BME280;70514;52.478;6.102;2023-08-21T08:54:30;102502.38;;;27.32;47.19
81033;BME280;70514;52.478;6.102;2023-08-21T08:57:00;102513.03;;;27.80;46.33
81033;BME280;70514;52.478;6.102;2023-08-21T08:59:32;102509.94;;;28.15;46.04
81033;BME280;70514;52.478;6.102;2023-08-21T09:02:02;102510.94;;;28.35;44.87
81033;BME280;70514;52.478;6.102;2023-08-21T09:04:32;102496.06;;;28.54;43.61
81033;BME280;70514;52.478;6.102;2023-08-21T09:07:10;102504.59;;;28.60;43.16
81033;BME280;70514;52.478;6.102;2023-08-21T09:09:44;102503.63;;;28.85;42.89
81033;BME280;70514;52.478;6.102;2023-08-21T09:12:15;102499.09;;;29.29;40.97
81033;BME280;70514;52.478;6.102;2023-08-21T09:14:47;102505.59;;;29.62;40.55
81033;BME280;70514;52.478;6.102;2023-08-21T09:17:17;102499.00;;;29.71;40.05
81033;BME280;70514;52.478;6.102;2023-08-21T09:19:48;102491.00;;;29.91;39.42
81033;BME280;70514;52.478;6.102;2023-08-21T09:22:18;102503.31;;;29.73;40.36
81033;BME280;70514;52.478;6.102;2023-08-21T09:25:04;102495.84;;;30.20;38.71
81033;BME280;70514;52.478;6.102;2023-08-21T09:27:39;102488.47;;;30.44;37.37
81033;BME280;70514;52.478;6.102;2023-08-21T09:30:10;102496.47;;;30.07;39.09
81033;BME280;70514;52.478;6.102;2023-08-21T09:32:58;102495.00;;;30.37;38.98
81033;BME280;70514;52.478;6.102;2023-08-21T09:35:34;102498.56;;;30.56;38.37
81033;BME280;70514;52.478;6.102;2023-08-21T09:38:04;102498.03;;;30.48;39.00
81033;BME280;70514;52.478;6.102;2023-08-21T09:40:34;102494.69;;;30.98;38.07
81033;BME280;70514;52.478;6.102;2023-08-21T09:43:04;102487.91;;;30.37;39.31
81033;BME280;70514;52.478;6.102;2023-08-21T09:45:34;102487.81;;;30.58;38.88
81033;BME280;70514;52.478;6.102;2023-08-21T09:48:04;102484.47;;;30.89;37.96
81033;BME280;70514;52.478;6.102;2023-08-21T09:50:35;102479.19;;;31.23;37.48
81033;BME280;70514;52.478;6.102;2023-08-21T09:53:06;102477.59;;;31.02;38.20
81033;BME280;70514;52.478;6.102;2023-08-21T09:55:36;102478.72;;;31.32;37.39
81033;BME280;70514;52.478;6.102;2023-08-21T09:58:06;102484.91;;;31.33;37.14
81033;BME280;70514;52.478;6.102;2023-08-21T10:00:37;102483.50;;;31.76;36.07
81033;BME280;70514;52.478;6.102;2023-08-21T10:03:08;102477.84;;;32.13;36.09
81033;BME280;70514;52.478;6.102;2023-08-21T10:05:39;102475.13;;;32.76;34.72
81033;BME280;70514;52.478;6.102;2023-08-21T10:08:09;102464.66;;;31.79;36.33
81033;BME280;70514;52.478;6.102;2023-08-21T10:10:40;102473.72;;;32.39;35.25
81033;BME280;70514;52.478;6.102;2023-08-21T10:13:10;102472.69;;;32.41;33.84
81033;BME280;70514;52.478;6.102;2023-08-21T10:15:41;102468.91;;;32.45;34.92
81033;BME280;70514;52.478;6.102;2023-08-21T10:18:29;102469.09;;;32.42;35.32
81033;BME280;70514;52.478;6.102;2023-08-21T10:23:41;102457.22;;;32.48;34.47
81033;BME280;70514;52.478;6.102;2023-08-21T10:26:14;102459.34;;;33.17;33.83
81033;BME280;70514;52.478;6.102;2023-08-21T10:28:50;102455.38;;;33.52;31.71
81033;BME280;70514;52.478;6.102;2023-08-21T10:34:00;102452.00;;;33.49;32.46
81033;BME280;70514;52.478;6.102;2023-08-21T10:42:16;102447.44;;;34.20;31.10
81033;BME280;70514;52.478;6.102;2023-08-21T10:44:48;102467.75;;;33.53;33.10
81033;BME280;70514;52.478;6.102;2023-08-21T10:49:58;102455.63;;;33.48;33.67
81033;BME280;70514;52.478;6.102;2023-08-21T10:52:38;102458.69;;;34.25;29.75
81033;BME280;70514;52.478;6.102;2023-08-21T10:55:12;102454.78;;;34.31;29.18
81033;BME280;70514;52.478;6.102;2023-08-21T10:57:41;102468.81;;;34.34;30.38
81033;BME280;70514;52.478;6.102;2023-08-21T11:00:12;102469.00;;;33.90;32.74
81033;BME280;70514;52.478;6.102;2023-08-21T11:02:43;102461.59;;;34.49;30.46
81033;BME280;70514;52.478;6.102;2023-08-21T11:05:14;102475.13;;;33.78;33.05
81033;BME280;70514;52.478;6.102;2023-08-21T11:07:46;102461.31;;;32.99;34.37
81033;BME280;70514;52.478;6.102;2023-08-21T11:10:18;102471.91;;;33.73;33.63
81033;BME280;70514;52.478;6.102;2023-08-21T11:12:52;102472.16;;;33.40;33.79
81033;BME280;70514;52.478;6.102;2023-08-21T11:15:22;102469.72;;;32.62;35.45
81033;BME280;70514;52.478;6.102;2023-08-21T11:18:01;102461.34;;;31.91;36.33
81033;BME280;70514;52.478;6.102;2023-08-21T11:20:35;102452.94;;;32.60;34.68
81033;BME280;70514;52.478;6.102;2023-08-21T11:23:06;102476.03;;;33.63;33.56
81033;BME280;70514;52.478;6.102;2023-08-21T11:25:39;102467.47;;;33.58;34.21
81033;BME280;70514;52.478;6.102;2023-08-21T11:28:09;102468.03;;;33.49;34.30
81033;BME280;70514;52.478;6.102;2023-08-21T11:30:38;102467.09;;;33.36;32.86
81033;BME280;70514;52.478;6.102;2023-08-21T11:33:09;102466.06;;;33.52;31.36
81033;BME280;70514;52.478;6.102;2023-08-21T11:35:39;102459.84;;;33.66;29.89
81033;BME280;70514;52.478;6.102;2023-08-21T11:38:17;102459.66;;;33.26;29.24
81033;BME280;70514;52.478;6.102;2023-08-21T11:41:00;102457.00;;;33.69;34.73
81033;BME280;70514;52.478;6.102;2023-08-21T11:43:39;102462.31;;;33.55;34.63
81033;BME280;70514;52.478;6.102;2023-08-21T11:46:09;102454.03;;;33.31;35.73
81033;BME280;70514;52.478;6.102;2023-08-21T11:48:42;102451.69;;;33.96;35.05
81033;BME280;70514;52.478;6.102;2023-08-21T11:51:12;102450.63;;;35.31;32.28
81033;BME280;70514;52.478;6.102;2023-08-21T11:53:42;102446.31;;;35.66;26.96
81033;BME280;70514;52.478;6.102;2023-08-21T11:56:17;102451.03;;;35.25;32.39
81033;BME280;70514;52.478;6.102;2023-08-21T11:58:51;102444.69;;;35.64;26.68
81033;BME280;70514;52.478;6.102;2023-08-21T12:01:21;102449.47;;;34.70;32.65
81033;BME280;70514;52.478;6.102;2023-08-21T12:03:50;102441.09;;;34.08;34.59
81033;BME280;70514;52.478;6.102;2023-08-21T12:06:25;102444.38;;;33.85;34.66
81033;BME280;70514;52.478;6.102;2023-08-21T12:08:54;102429.78;;;33.48;35.77
81033;BME280;70514;52.478;6.102;2023-08-21T12:11:24;102435.81;;;34.21;33.99
81033;BME280;70514;52.478;6.102;2023-08-21T12:13:53;102433.13;;;34.48;34.30
81033;BME280;70514;52.478;6.102;2023-08-21T12:16:23;102428.50;;;34.89;30.69
81033;BME280;70514;52.478;6.102;2023-08-21T12:18:52;102428.75;;;35.12;32.02
81033;BME280;70514;52.478;6.102;2023-08-21T12:21:24;102426.72;;;35.03;29.43
81033;BME280;70514;52.478;6.102;2023-08-21T12:23:53;102424.88;;;35.16;32.08
81033;BME280;70514;52.478;6.102;2023-08-21T12:26:23;102420.56;;;35.51;28.40
81033;BME280;70514;52.478;6.102;2023-08-21T12:29:02;102425.53;;;35.19;32.03
81033;BME280;70514;52.478;6.102;2023-08-21T12:31:31;102423.59;;;35.09;32.18
81033;BME280;70514;52.478;6.102;2023-08-21T12:34:01;102425.91;;;35.64;29.09
81033;BME280;70514;52.478;6.102;2023-08-21T12:36:30;102425.78;;;35.65;29.57
81033;BME280;70514;52.478;6.102;2023-08-21T12:38:59;102430.03;;;35.19;32.12
81033;BME280;70514;52.478;6.102;2023-08-21T12:41:28;102428.97;;;35.96;28.89
81033;BME280;70514;52.478;6.102;2023-08-21T12:43:57;102437.19;;;36.05;30.18
81033;BME280;70514;52.478;6.102;2023-08-21T12:46:26;102438.78;;;36.08;29.01
81033;BME280;70514;52.478;6.102;2023-08-21T12:48:56;102429.56;;;36.36;30.31
81033;BME280;70514;52.478;6.102;2023-08-21T12:51:25;102425.88;;;35.89;24.15
81033;BME280;70514;52.478;6.102;2023-08-21T12:53:55;102421.19;;;35.80;30.56
81033;BME280;70514;52.478;6.102;2023-08-21T12:56:24;102411.00;;;35.72;31.64
81033;BME280;70514;52.478;6.102;2023-08-21T12:58:53;102405.59;;;35.49;32.01
81033;BME280;70514;52.478;6.102;2023-08-21T13:01:24;102403.53;;;35.52;30.97
81033;BME280;70514;52.478;6.102;2023-08-21T13:03:53;102403.50;;;35.77;30.15
81033;BME280;70514;52.478;6.102;2023-08-21T13:06:23;102398.19;;;35.89;31.22
81033;BME280;70514;52.478;6.102;2023-08-21T13:08:53;102393.75;;;35.64;27.24
81033;BME280;70514;52.478;6.102;2023-08-21T13:11:23;102400.16;;;36.10;27.22
81033;BME280;70514;52.478;6.102;2023-08-21T13:13:52;102404.03;;;36.06;30.87
81033;BME280;70514;52.478;6.102;2023-08-21T13:16:21;102406.41;;;36.46;26.44
81033;BME280;70514;52.478;6.102;2023-08-21T13:18:50;102400.22;;;36.56;27.78